Akashi — JM6695 — position and weather

sailwx.info

Track history (hours):
 
Tides and Currents Weather Stations Pressure Air Temp Water Temp Dewpoint Dewpoint Depression Visibility Wind Speed Wind Dir Waves Ship Positions

Akashi

Last reported at 2017-Dec-16 06:45 UTC. Time now 2017-Dec-16 07:09 UTC.
Position N 33°15' E 131°44'.

Length 75 m; draft 5 m.

Type: Cargo ship. MMSI: 431301627.

Date/timePositionNaut miles runAvg speedWind from/ knotsBaromVisibWave heightAir tempDewpointWater temp
2017-Dec-16 06:45N 33°15' E 131°44'0 0.0
2017-Dec-16 06:25N 33°15' E 131°44'1 2.1
2017-Dec-16 06:01N 33°16' E 131°44'2 4.7
2017-Dec-16 05:29N 33°18' E 131°45'511.1
2017-Dec-16 05:00N 33°23' E 131°49'5 8.9
2017-Dec-16 04:29N 33°26' E 131°52'510.6
2017-Dec-16 04:00N 33°29' E 131°58'3511.0
2017-Dec-16 00:48N 33°48' E 132°33'510.7
2017-Dec-16 00:21N 33°50' E 132°38'3 8.9
2017-Dec-16 00:00N 33°51' E 132°42'0 0.1
2017-Dec-15 23:06N 33°51' E 132°42'0 1.6
2017-Dec-15 23:00N 33°51' E 132°42'1 1.2
2017-Dec-15 21:53N 33°51' E 132°40'0 0.0
2017-Dec-15 19:08N 33°51' E 132°40'0 1.1
2017-Dec-15 19:00N 33°51' E 132°41'4 7.9
2017-Dec-15 18:30N 33°55' E 132°43'611.7
2017-Dec-15 18:00N 34°01' E 132°45'1411.7
2017-Dec-15 16:49N 34°09' E 132°58'5710.9
2017-Dec-15 11:36N 34°27' E 134°03'1711.6
2017-Dec-15 10:10N 34°25' E 134°23'211.8
2017-Dec-15 10:00N 34°26' E 134°26'612.0
2017-Dec-15 09:30N 34°28' E 134°32'612.1
2017-Dec-15 09:00N 34°31' E 134°39'612.3
2017-Dec-15 08:30N 34°33' E 134°46'612.5
2017-Dec-15 08:00N 34°35' E 134°53'612.3
2017-Dec-15 07:30N 34°38' E 134°60'611.2
2017-Dec-15 07:01N 34°36' E 135°06'611.7
2017-Dec-15 06:30N 34°37' E 135°13'2 4.7
2017-Dec-15 06:00N 34°40' E 135°14'0 0.2
2017-Dec-15 05:30N 34°40' E 135°15'1 2.3
2017-Dec-15 05:00N 34°39' E 135°15'0 0.1
2017-Dec-15 04:29N 34°39' E 135°15'0 0.0
2017-Dec-15 03:59N 34°39' E 135°15'2 1.6
2017-Dec-15 02:29N 34°41' E 135°17'2 1.6
2017-Dec-15 01:00N 34°39' E 135°15'0 0.8
2017-Dec-15 00:31N 34°39' E 135°15'1 0.1
2017-Dec-14 18:30N 34°38' E 135°15'0 0.1
2017-Dec-14 18:00N 34°39' E 135°15'0 0.0
2017-Dec-14 17:30N 34°38' E 135°15'0 0.0
2017-Dec-14 17:00N 34°39' E 135°15'2 3.4
2017-Dec-14 16:30N 34°37' E 135°14'611.5
2017-Dec-14 16:01N 34°35' E 135°08'1312.6
2017-Dec-14 15:01N 34°35' E 134°52'612.8
2017-Dec-14 14:31N 34°32' E 134°45'611.9
2017-Dec-14 14:01N 34°30' E 134°39'611.5
2017-Dec-14 13:31N 34°28' E 134°32'611.4
2017-Dec-14 13:00N 34°25' E 134°26'18 1.0
2017-Dec-13 18:21N 34°27' E 134°03'511.9
2017-Dec-13 17:57N 34°26' E 134°09'711.1
2017-Dec-13 17:18N 34°24' E 134°17'411.1
2017-Dec-13 16:57N 34°25' E 134°22'511.3
2017-Dec-13 16:30N 34°27' E 134°28'611.4
2017-Dec-13 16:00N 34°29' E 134°34'611.3
2017-Dec-13 15:30N 34°31' E 134°40'611.0
2017-Dec-13 15:00N 34°33' E 134°47'510.0
2017-Dec-13 14:30N 34°35' E 134°52'5 9.3
2017-Dec-13 14:00N 34°37' E 134°57'4 8.2
2017-Dec-13 13:30N 34°37' E 135°02'5 9.3
2017-Dec-13 13:00N 34°36' E 135°08'611.3
2017-Dec-13 12:30N 34°37' E 135°14'611.6
2017-Dec-13 12:00N 34°39' E 135°21'3 6.8
2017-Dec-13 11:30N 34°37' E 135°25'0 0.2
2017-Dec-13 11:01N 34°38' E 135°25'0 0.3
2017-Dec-13 10:31N 34°37' E 135°25'1 1.5
2017-Dec-13 10:01N 34°37' E 135°24'1 2.5
2017-Dec-13 09:28N 34°37' E 135°23'0 0.0
2017-Dec-13 08:58N 34°37' E 135°23'0 0.2
2017-Dec-13 08:31N 34°37' E 135°23'3 5.8
2017-Dec-13 08:01N 34°39' E 135°26'0 0.0
2017-Dec-13 07:30N 34°39' E 135°26'1 2.6
2017-Dec-13 07:00N 34°39' E 135°24'611.2
2017-Dec-13 06:30N 34°39' E 135°17'3 5.2
2017-Dec-13 06:00N 34°40' E 135°14'0 0.0
2017-Dec-13 05:24N 34°40' E 135°14'0 0.0
2017-Dec-13 05:01N 34°40' E 135°14'2 2.9
2017-Dec-13 04:29N 34°41' E 135°15'0 0.2
2017-Dec-13 04:01N 34°41' E 135°15'2 4.2
2017-Dec-13 03:31N 34°39' E 135°15'0 0.1
2017-Dec-13 03:00N 34°39' E 135°15'0 0.1
2017-Dec-13 02:30N 34°39' E 135°15'0 0.1
2017-Dec-13 02:01N 34°39' E 135°15'0 0.8
2017-Dec-13 01:30N 34°39' E 135°15'0 0.0
2017-Dec-13 01:00N 34°39' E 135°15'1 1.3
2017-Dec-13 00:30N 34°39' E 135°15'0 0.4
2017-Dec-13 00:00N 34°39' E 135°15'0 0.0
2017-Dec-12 23:30N 34°39' E 135°15'0 0.0
2017-Dec-12 23:00N 34°39' E 135°15'0 0.0
2017-Dec-12 22:30N 34°39' E 135°15'0 0.0
2017-Dec-12 22:00N 34°39' E 135°15'0 0.0
2017-Dec-12 21:30N 34°39' E 135°15'0 0.0
2017-Dec-12 21:00N 34°39' E 135°15'0 0.0
2017-Dec-12 20:30N 34°39' E 135°15'0 0.0
2017-Dec-12 20:00N 34°39' E 135°15'0 0.0
2017-Dec-12 19:30N 34°39' E 135°15'0 0.0
2017-Dec-12 19:00N 34°39' E 135°15'0 0.0
2017-Dec-12 18:27N 34°39' E 135°15'0 0.0
2017-Dec-12 18:00N 34°39' E 135°15'0 0.0
2017-Dec-12 17:30N 34°39' E 135°15'0 0.0
2017-Dec-12 17:00N 34°39' E 135°15'0 0.0
2017-Dec-12 16:30N 34°39' E 135°15'2 4.5
2017-Dec-12 16:00N 34°37' E 135°13'611.9
2017-Dec-12 15:30N 34°35' E 135°07'713.1
2017-Dec-12 15:00N 34°37' E 134°59'713.7
2017-Dec-12 14:30N 34°34' E 134°51'612.6
2017-Dec-12 14:00N 34°32' E 134°44'611.8
2017-Dec-12 13:30N 34°29' E 134°38'611.6
2017-Dec-12 13:00N 34°27' E 134°31'611.4
2017-Dec-12 12:30N 34°25' E 134°25'18 0.9
2017-Dec-11 16:46N 34°27' E 134°03'510.3
2017-Dec-11 16:15N 34°26' E 134°09'12 9.8
2017-Dec-11 15:02N 34°25' E 134°24'010.9
2017-Dec-11 15:00N 34°25' E 134°24'510.4
2017-Dec-11 14:30N 34°27' E 134°30'510.0
2017-Dec-11 14:00N 34°29' E 134°36'5 9.5
2017-Dec-11 13:30N 34°31' E 134°41'5 9.3
2017-Dec-11 13:00N 34°33' E 134°46'4 8.7
2017-Dec-11 12:30N 34°35' E 134°51'4 7.8
2017-Dec-11 12:00N 34°36' E 134°55'4 7.9
2017-Dec-11 11:30N 34°38' E 134°60'3 7.0
2017-Dec-11 11:00N 34°36' E 135°04'5 9.4
2017-Dec-11 10:30N 34°36' E 135°09'510.2
2017-Dec-11 10:00N 34°37' E 135°15'510.2
2017-Dec-11 09:30N 34°39' E 135°21'3 6.9
2017-Dec-11 09:00N 34°38' E 135°25'0 0.0
2017-Dec-11 08:30N 34°38' E 135°25'0 0.0
2017-Dec-11 08:00N 34°38' E 135°25'1 2.0
2017-Dec-11 07:31N 34°38' E 135°24'611.9
2017-Dec-11 07:00N 34°41' E 135°18'1 1.8
2017-Dec-11 06:30N 34°41' E 135°17'0 0.8
2017-Dec-11 06:01N 34°41' E 135°16'2 3.4
2017-Dec-11 05:31N 34°39' E 135°15'0 0.6
2017-Dec-11 05:00N 34°39' E 135°15'0 0.1
2017-Dec-11 04:30N 34°39' E 135°15'0 0.1
2017-Dec-11 04:00N 34°39' E 135°15'0 0.0
2017-Dec-11 03:30N 34°39' E 135°15'0 0.0
2017-Dec-11 03:00N 34°39' E 135°15'0 0.1
2017-Dec-11 02:30N 34°39' E 135°15'0 0.1
2017-Dec-11 02:00N 34°39' E 135°15'0 0.7
2017-Dec-11 01:31N 34°39' E 135°15'2 4.1
2017-Dec-11 01:00N 34°41' E 135°17'0 0.7
2017-Dec-11 00:30N 34°41' E 135°16'0 0.1
2017-Dec-10 23:58N 34°41' E 135°16'0 0.0
2017-Dec-10 23:28N 34°41' E 135°16'2 5.4
2017-Dec-10 23:01N 34°41' E 135°13'1 1.1
2017-Dec-10 22:30N 34°41' E 135°13'0 0.0
2017-Dec-10 22:00N 34°41' E 135°13'0 0.0
2017-Dec-10 21:30N 34°41' E 135°13'0 0.0
2017-Dec-10 21:00N 34°41' E 135°13'0 0.0
2017-Dec-10 20:30N 34°41' E 135°13'0 0.0
2017-Dec-10 20:00N 34°41' E 135°13'0 0.0
2017-Dec-10 19:30N 34°41' E 135°13'0 0.0
2017-Dec-10 19:00N 34°41' E 135°13'0 0.0
2017-Dec-10 18:30N 34°41' E 135°13'0 0.0
2017-Dec-10 18:00N 34°41' E 135°13'0 0.0
2017-Dec-10 17:30N 34°41' E 135°13'0 0.0
2017-Dec-10 17:00N 34°41' E 135°13'0 0.0
2017-Dec-10 16:30N 34°41' E 135°13'0 0.0
2017-Dec-10 16:00N 34°41' E 135°13'0 0.0
2017-Dec-10 15:30N 34°41' E 135°13'0 0.0
2017-Dec-10 15:00N 34°41' E 135°13'0 0.0
2017-Dec-10 14:30N 34°41' E 135°13'0 0.0
2017-Dec-10 14:00N 34°41' E 135°13'0 0.0
2017-Dec-10 13:30N 34°41' E 135°13'0 0.0
2017-Dec-10 13:00N 34°41' E 135°13'0 0.0
2017-Dec-10 12:30N 34°41' E 135°13'0 0.0
2017-Dec-10 12:00N 34°41' E 135°13'0 0.0
2017-Dec-10 11:30N 34°41' E 135°13'0 0.0
2017-Dec-10 11:00N 34°41' E 135°13'0 0.0
2017-Dec-10 10:30N 34°41' E 135°13'0 0.0
2017-Dec-10 10:00N 34°41' E 135°13'0 0.0
2017-Dec-10 09:30N 34°41' E 135°13'0 0.0
2017-Dec-10 08:57N 34°41' E 135°13'0 0.0
2017-Dec-10 08:30N 34°41' E 135°13'0 0.0
2017-Dec-10 08:00N 34°41' E 135°13'0 0.0
2017-Dec-10 07:27N 34°41' E 135°13'0 0.0
2017-Dec-10 07:00N 34°41' E 135°13'0 0.0
2017-Dec-10 06:30N 34°41' E 135°13'0 0.0
2017-Dec-10 06:00N 34°41' E 135°13'0 0.0
2017-Dec-10 05:30N 34°41' E 135°13'0 0.0
2017-Dec-10 05:00N 34°41' E 135°13'0 0.0
2017-Dec-10 04:30N 34°41' E 135°13'0 0.0
2017-Dec-10 04:00N 34°41' E 135°13'0 0.0
2017-Dec-10 03:30N 34°41' E 135°13'0 0.0
2017-Dec-10 03:00N 34°41' E 135°13'0 0.0
2017-Dec-10 02:30N 34°41' E 135°13'0 0.0
2017-Dec-10 02:00N 34°41' E 135°13'0 0.0
2017-Dec-10 01:30N 34°41' E 135°13'0 0.0
2017-Dec-10 01:00N 34°41' E 135°13'0 0.0
2017-Dec-10 00:30N 34°41' E 135°13'0 0.0
2017-Dec-10 00:00N 34°41' E 135°13'0 0.0
2017-Dec-09 23:30N 34°41' E 135°13'0 0.0
2017-Dec-09 23:01N 34°41' E 135°13'3 5.7
2017-Dec-09 22:30N 34°39' E 135°15'1 1.5
2017-Dec-09 21:58N 34°39' E 135°15'0 0.0
2017-Dec-09 21:28N 34°39' E 135°15'0 0.0
2017-Dec-09 20:58N 34°39' E 135°15'0 0.0
2017-Dec-09 20:28N 34°39' E 135°15'0 0.1
2017-Dec-09 19:58N 34°39' E 135°15'0 0.1
2017-Dec-09 19:28N 34°39' E 135°15'0 0.0
2017-Dec-09 18:58N 34°39' E 135°15'0 0.1
2017-Dec-09 18:28N 34°39' E 135°15'0 0.0
2017-Dec-09 18:01N 34°39' E 135°15'0 0.0
2017-Dec-09 17:31N 34°39' E 135°15'0 0.0
2017-Dec-09 16:58N 34°39' E 135°15'0 0.1
2017-Dec-09 16:28N 34°39' E 135°15'0 0.0
2017-Dec-09 15:58N 34°39' E 135°15'2 4.6
2017-Dec-09 15:30N 34°37' E 135°13'611.4
2017-Dec-09 15:00N 34°35' E 135°07'510.8
2017-Dec-09 14:30N 34°37' E 135°01'611.0
2017-Dec-09 14:00N 34°35' E 134°54'611.5
2017-Dec-09 13:31N 34°33' E 134°48'611.5
2017-Dec-09 13:00N 34°31' E 134°41'611.7
2017-Dec-09 12:31N 34°28' E 134°35'611.8
2017-Dec-09 12:00N 34°26' E 134°28'8911.7
2017-Dec-09 04:23N 34°06' E 132°43'1510.3
2017-Dec-09 02:56N 34°06' E 132°25'511.7
2017-Dec-09 02:30N 34°09' E 132°20'611.3
2017-Dec-09 02:00N 34°13' E 132°15'0 0.3
2017-Dec-09 01:28N 34°13' E 132°15'0 0.0
2017-Dec-09 00:58N 34°13' E 132°15'0 0.0
2017-Dec-09 00:28N 34°13' E 132°15'0 0.0
2017-Dec-08 23:58N 34°13' E 132°15'0 0.0
2017-Dec-08 23:28N 34°13' E 132°15'1 1.1
2017-Dec-08 23:00N 34°13' E 132°15'1 1.3
2017-Dec-08 22:30N 34°13' E 132°16'0 0.0
2017-Dec-08 22:00N 34°13' E 132°16'0 0.0
2017-Dec-08 21:30N 34°13' E 132°16'0 0.0
2017-Dec-08 21:00N 34°13' E 132°16'0 0.2
2017-Dec-08 20:30N 34°13' E 132°16'5 9.6
2017-Dec-08 19:59N 34°09' E 132°19'511.0
2017-Dec-08 19:30N 34°06' E 132°25'610.7
2017-Dec-08 18:56N 34°02' E 132°31'410.1
2017-Dec-08 18:31N 34°03' E 132°36'611.4
2017-Dec-08 18:01N 34°06' E 132°42'7210.1
2017-Dec-08 10:50N 34°32' E 134°04'2010.5
2017-Dec-08 08:54N 34°41' E 134°26'510.6
2017-Dec-08 08:25N 34°43' E 134°31'5 1.5
2017-Dec-08 04:49N 34°46' E 134°36'1 2.1
2017-Dec-08 04:30N 34°46' E 134°37'510.4
2017-Dec-08 04:01N 34°43' E 134°42'611.4
2017-Dec-08 03:30N 34°40' E 134°47'612.2
2017-Dec-08 03:00N 34°37' E 134°54'714.3
2017-Dec-08 02:31N 34°36' E 135°03'611.5
2017-Dec-08 02:01N 34°36' E 135°10'510.7
2017-Dec-08 01:31N 34°39' E 135°15'1 1.5
2017-Dec-08 01:00N 34°39' E 135°15'0 0.7
2017-Dec-08 00:31N 34°39' E 135°15'2 4.1
2017-Dec-08 00:00N 34°41' E 135°17'0 0.0
2017-Dec-07 23:29N 34°41' E 135°17'0 0.5
2017-Dec-07 23:00N 34°41' E 135°17'0 0.1
2017-Dec-07 22:29N 34°41' E 135°17'0 0.0
2017-Dec-07 21:59N 34°41' E 135°17'0 0.0
2017-Dec-07 21:29N 34°41' E 135°17'0 0.0
2017-Dec-07 20:59N 34°41' E 135°17'0 0.0
2017-Dec-07 20:29N 34°41' E 135°17'0 0.0
2017-Dec-07 19:59N 34°41' E 135°17'0 0.0
2017-Dec-07 19:29N 34°41' E 135°17'0 0.0
2017-Dec-07 18:59N 34°41' E 135°17'0 0.0
2017-Dec-07 18:29N 34°41' E 135°17'0 0.0
2017-Dec-07 17:59N 34°41' E 135°17'0 0.0
2017-Dec-07 17:29N 34°41' E 135°17'0 0.0
2017-Dec-07 16:59N 34°41' E 135°17'0 0.0
2017-Dec-07 16:29N 34°41' E 135°17'0 0.0
2017-Dec-07 15:59N 34°41' E 135°17'0 0.0
2017-Dec-07 15:29N 34°41' E 135°17'0 0.0
2017-Dec-07 14:59N 34°41' E 135°17'0 0.0
2017-Dec-07 14:29N 34°41' E 135°17'0 0.0
2017-Dec-07 13:59N 34°41' E 135°17'0 0.0
2017-Dec-07 13:29N 34°41' E 135°17'0 0.0
2017-Dec-07 12:59N 34°41' E 135°17'0 0.0
2017-Dec-07 12:29N 34°41' E 135°17'0 0.0
2017-Dec-07 11:59N 34°41' E 135°17'0 0.0
2017-Dec-07 11:29N 34°41' E 135°17'0 0.0
2017-Dec-07 10:59N 34°41' E 135°17'0 0.0
2017-Dec-07 10:29N 34°41' E 135°17'0 0.0
2017-Dec-07 09:59N 34°41' E 135°17'0 0.0
2017-Dec-07 09:29N 34°41' E 135°17'0 0.2
2017-Dec-07 09:00N 34°41' E 135°17'3 6.6
2017-Dec-07 08:30N 34°37' E 135°17'510.9
2017-Dec-07 08:01N 34°35' E 135°11'612.4
2017-Dec-07 07:31N 34°35' E 135°04'612.7
2017-Dec-07 07:00N 34°36' E 134°56'612.5
2017-Dec-07 06:30N 34°34' E 134°49'611.4
2017-Dec-07 06:00N 34°31' E 134°43'611.6
2017-Dec-07 05:30N 34°29' E 134°36'611.9
2017-Dec-07 05:00N 34°27' E 134°30'  
Track history (hours):
 
Tides and Currents Weather Stations Pressure Air Temp Water Temp Dewpoint Dewpoint Depression Visibility Wind Speed Wind Dir Waves Ship Positions

Akashi

Last reported at 2017-Dec-16 06:45 UTC. Time now 2017-Dec-16 07:09 UTC.
Position N 33°15' E 131°44'.

Length 75 m; draft 5 m.

Type: Cargo ship. MMSI: 431301627.

Date/timePositionNaut miles runAvg speedWind from/ knotsBaromVisibWave heightAir tempDewpointWater temp
2017-Dec-16 06:45N 33°15' E 131°44'0 0.0
2017-Dec-16 06:25N 33°15' E 131°44'1 2.1
2017-Dec-16 06:01N 33°16' E 131°44'2 4.7
2017-Dec-16 05:29N 33°18' E 131°45'511.1
2017-Dec-16 05:00N 33°23' E 131°49'5 8.9
2017-Dec-16 04:29N 33°26' E 131°52'510.6
2017-Dec-16 04:00N 33°29' E 131°58'3511.0
2017-Dec-16 00:48N 33°48' E 132°33'510.7
2017-Dec-16 00:21N 33°50' E 132°38'3 8.9
2017-Dec-16 00:00N 33°51' E 132°42'0 0.1
2017-Dec-15 23:06N 33°51' E 132°42'0 1.6
2017-Dec-15 23:00N 33°51' E 132°42'1 1.2
2017-Dec-15 21:53N 33°51' E 132°40'0 0.0
2017-Dec-15 19:08N 33°51' E 132°40'0 1.1
2017-Dec-15 19:00N 33°51' E 132°41'4 7.9
2017-Dec-15 18:30N 33°55' E 132°43'611.7
2017-Dec-15 18:00N 34°01' E 132°45'1411.7
2017-Dec-15 16:49N 34°09' E 132°58'5710.9
2017-Dec-15 11:36N 34°27' E 134°03'1711.6
2017-Dec-15 10:10N 34°25' E 134°23'211.8
2017-Dec-15 10:00N 34°26' E 134°26'612.0
2017-Dec-15 09:30N 34°28' E 134°32'612.1
2017-Dec-15 09:00N 34°31' E 134°39'612.3
2017-Dec-15 08:30N 34°33' E 134°46'612.5
2017-Dec-15 08:00N 34°35' E 134°53'612.3
2017-Dec-15 07:30N 34°38' E 134°60'611.2
2017-Dec-15 07:01N 34°36' E 135°06'611.7
2017-Dec-15 06:30N 34°37' E 135°13'2 4.7
2017-Dec-15 06:00N 34°40' E 135°14'0 0.2
2017-Dec-15 05:30N 34°40' E 135°15'1 2.3
2017-Dec-15 05:00N 34°39' E 135°15'0 0.1
2017-Dec-15 04:29N 34°39' E 135°15'0 0.0
2017-Dec-15 03:59N 34°39' E 135°15'2 1.6
2017-Dec-15 02:29N 34°41' E 135°17'2 1.6
2017-Dec-15 01:00N 34°39' E 135°15'0 0.8
2017-Dec-15 00:31N 34°39' E 135°15'1 0.1
2017-Dec-14 18:30N 34°38' E 135°15'0 0.1
2017-Dec-14 18:00N 34°39' E 135°15'0 0.0
2017-Dec-14 17:30N 34°38' E 135°15'0 0.0
2017-Dec-14 17:00N 34°39' E 135°15'2 3.4
2017-Dec-14 16:30N 34°37' E 135°14'611.5
2017-Dec-14 16:01N 34°35' E 135°08'1312.6
2017-Dec-14 15:01N 34°35' E 134°52'612.8
2017-Dec-14 14:31N 34°32' E 134°45'611.9
2017-Dec-14 14:01N 34°30' E 134°39'611.5
2017-Dec-14 13:31N 34°28' E 134°32'611.4
2017-Dec-14 13:00N 34°25' E 134°26'18 1.0
2017-Dec-13 18:21N 34°27' E 134°03'511.9
2017-Dec-13 17:57N 34°26' E 134°09'711.1
2017-Dec-13 17:18N 34°24' E 134°17'411.1
2017-Dec-13 16:57N 34°25' E 134°22'511.3
2017-Dec-13 16:30N 34°27' E 134°28'611.4
2017-Dec-13 16:00N 34°29' E 134°34'611.3
2017-Dec-13 15:30N 34°31' E 134°40'611.0
2017-Dec-13 15:00N 34°33' E 134°47'510.0
2017-Dec-13 14:30N 34°35' E 134°52'5 9.3
2017-Dec-13 14:00N 34°37' E 134°57'4 8.2
2017-Dec-13 13:30N 34°37' E 135°02'5 9.3
2017-Dec-13 13:00N 34°36' E 135°08'611.3
2017-Dec-13 12:30N 34°37' E 135°14'611.6
2017-Dec-13 12:00N 34°39' E 135°21'3 6.8
2017-Dec-13 11:30N 34°37' E 135°25'0 0.2
2017-Dec-13 11:01N 34°38' E 135°25'0 0.3
2017-Dec-13 10:31N 34°37' E 135°25'1 1.5
2017-Dec-13 10:01N 34°37' E 135°24'1 2.5
2017-Dec-13 09:28N 34°37' E 135°23'0 0.0
2017-Dec-13 08:58N 34°37' E 135°23'0 0.2
2017-Dec-13 08:31N 34°37' E 135°23'3 5.8
2017-Dec-13 08:01N 34°39' E 135°26'0 0.0
2017-Dec-13 07:30N 34°39' E 135°26'1 2.6
2017-Dec-13 07:00N 34°39' E 135°24'611.2
2017-Dec-13 06:30N 34°39' E 135°17'3 5.2
2017-Dec-13 06:00N 34°40' E 135°14'0 0.0
2017-Dec-13 05:24N 34°40' E 135°14'0 0.0
2017-Dec-13 05:01N 34°40' E 135°14'2 2.9
2017-Dec-13 04:29N 34°41' E 135°15'0 0.2
2017-Dec-13 04:01N 34°41' E 135°15'2 4.2
2017-Dec-13 03:31N 34°39' E 135°15'0 0.1
2017-Dec-13 03:00N 34°39' E 135°15'0 0.1
2017-Dec-13 02:30N 34°39' E 135°15'0 0.1
2017-Dec-13 02:01N 34°39' E 135°15'0 0.8
2017-Dec-13 01:30N 34°39' E 135°15'0 0.0
2017-Dec-13 01:00N 34°39' E 135°15'1 1.3
2017-Dec-13 00:30N 34°39' E 135°15'0 0.4
2017-Dec-13 00:00N 34°39' E 135°15'0 0.0
2017-Dec-12 23:30N 34°39' E 135°15'0 0.0
2017-Dec-12 23:00N 34°39' E 135°15'0 0.0
2017-Dec-12 22:30N 34°39' E 135°15'0 0.0
2017-Dec-12 22:00N 34°39' E 135°15'0 0.0
2017-Dec-12 21:30N 34°39' E 135°15'0 0.0
2017-Dec-12 21:00N 34°39' E 135°15'0 0.0
2017-Dec-12 20:30N 34°39' E 135°15'0 0.0
2017-Dec-12 20:00N 34°39' E 135°15'0 0.0
2017-Dec-12 19:30N 34°39' E 135°15'0 0.0
2017-Dec-12 19:00N 34°39' E 135°15'0 0.0
2017-Dec-12 18:27N 34°39' E 135°15'0 0.0
2017-Dec-12 18:00N 34°39' E 135°15'0 0.0
2017-Dec-12 17:30N 34°39' E 135°15'0 0.0
2017-Dec-12 17:00N 34°39' E 135°15'0 0.0
2017-Dec-12 16:30N 34°39' E 135°15'2 4.5
2017-Dec-12 16:00N 34°37' E 135°13'611.9
2017-Dec-12 15:30N 34°35' E 135°07'713.1
2017-Dec-12 15:00N 34°37' E 134°59'713.7
2017-Dec-12 14:30N 34°34' E 134°51'612.6
2017-Dec-12 14:00N 34°32' E 134°44'611.8
2017-Dec-12 13:30N 34°29' E 134°38'611.6
2017-Dec-12 13:00N 34°27' E 134°31'611.4
2017-Dec-12 12:30N 34°25' E 134°25'18 0.9
2017-Dec-11 16:46N 34°27' E 134°03'510.3
2017-Dec-11 16:15N 34°26' E 134°09'12 9.8
2017-Dec-11 15:02N 34°25' E 134°24'010.9
2017-Dec-11 15:00N 34°25' E 134°24'510.4
2017-Dec-11 14:30N 34°27' E 134°30'510.0
2017-Dec-11 14:00N 34°29' E 134°36'5 9.5
2017-Dec-11 13:30N 34°31' E 134°41'5 9.3
2017-Dec-11 13:00N 34°33' E 134°46'4 8.7
2017-Dec-11 12:30N 34°35' E 134°51'4 7.8
2017-Dec-11 12:00N 34°36' E 134°55'4 7.9
2017-Dec-11 11:30N 34°38' E 134°60'3 7.0
2017-Dec-11 11:00N 34°36' E 135°04'5 9.4
2017-Dec-11 10:30N 34°36' E 135°09'510.2
2017-Dec-11 10:00N 34°37' E 135°15'510.2
2017-Dec-11 09:30N 34°39' E 135°21'3 6.9
2017-Dec-11 09:00N 34°38' E 135°25'0 0.0
2017-Dec-11 08:30N 34°38' E 135°25'0 0.0
2017-Dec-11 08:00N 34°38' E 135°25'1 2.0
2017-Dec-11 07:31N 34°38' E 135°24'611.9
2017-Dec-11 07:00N 34°41' E 135°18'1 1.8
2017-Dec-11 06:30N 34°41' E 135°17'0 0.8
2017-Dec-11 06:01N 34°41' E 135°16'2 3.4
2017-Dec-11 05:31N 34°39' E 135°15'0 0.6
2017-Dec-11 05:00N 34°39' E 135°15'0 0.1
2017-Dec-11 04:30N 34°39' E 135°15'0 0.1
2017-Dec-11 04:00N 34°39' E 135°15'0 0.0
2017-Dec-11 03:30N 34°39' E 135°15'0 0.0
2017-Dec-11 03:00N 34°39' E 135°15'0 0.1
2017-Dec-11 02:30N 34°39' E 135°15'0 0.1
2017-Dec-11 02:00N 34°39' E 135°15'0 0.7
2017-Dec-11 01:31N 34°39' E 135°15'2 4.1
2017-Dec-11 01:00N 34°41' E 135°17'0 0.7
2017-Dec-11 00:30N 34°41' E 135°16'0 0.1
2017-Dec-10 23:58N 34°41' E 135°16'0 0.0
2017-Dec-10 23:28N 34°41' E 135°16'2 5.4
2017-Dec-10 23:01N 34°41' E 135°13'1 1.1
2017-Dec-10 22:30N 34°41' E 135°13'0 0.0
2017-Dec-10 22:00N 34°41' E 135°13'0 0.0
2017-Dec-10 21:30N 34°41' E 135°13'0 0.0
2017-Dec-10 21:00N 34°41' E 135°13'0 0.0
2017-Dec-10 20:30N 34°41' E 135°13'0 0.0
2017-Dec-10 20:00N 34°41' E 135°13'0 0.0
2017-Dec-10 19:30N 34°41' E 135°13'0 0.0
2017-Dec-10 19:00N 34°41' E 135°13'0 0.0
2017-Dec-10 18:30N 34°41' E 135°13'0 0.0
2017-Dec-10 18:00N 34°41' E 135°13'0 0.0
2017-Dec-10 17:30N 34°41' E 135°13'0 0.0
2017-Dec-10 17:00N 34°41' E 135°13'0 0.0
2017-Dec-10 16:30N 34°41' E 135°13'0 0.0
2017-Dec-10 16:00N 34°41' E 135°13'0 0.0
2017-Dec-10 15:30N 34°41' E 135°13'0 0.0
2017-Dec-10 15:00N 34°41' E 135°13'0 0.0
2017-Dec-10 14:30N 34°41' E 135°13'0 0.0
2017-Dec-10 14:00N 34°41' E 135°13'0 0.0
2017-Dec-10 13:30N 34°41' E 135°13'0 0.0
2017-Dec-10 13:00N 34°41' E 135°13'0 0.0
2017-Dec-10 12:30N 34°41' E 135°13'0 0.0
2017-Dec-10 12:00N 34°41' E 135°13'0 0.0
2017-Dec-10 11:30N 34°41' E 135°13'0 0.0
2017-Dec-10 11:00N 34°41' E 135°13'0 0.0
2017-Dec-10 10:30N 34°41' E 135°13'0 0.0
2017-Dec-10 10:00N 34°41' E 135°13'0 0.0
2017-Dec-10 09:30N 34°41' E 135°13'0 0.0
2017-Dec-10 08:57N 34°41' E 135°13'0 0.0
2017-Dec-10 08:30N 34°41' E 135°13'0 0.0
2017-Dec-10 08:00N 34°41' E 135°13'0 0.0
2017-Dec-10 07:27N 34°41' E 135°13'0 0.0
2017-Dec-10 07:00N 34°41' E 135°13'0 0.0
2017-Dec-10 06:30N 34°41' E 135°13'0 0.0
2017-Dec-10 06:00N 34°41' E 135°13'0 0.0
2017-Dec-10 05:30N 34°41' E 135°13'0 0.0
2017-Dec-10 05:00N 34°41' E 135°13'0 0.0
2017-Dec-10 04:30N 34°41' E 135°13'0 0.0
2017-Dec-10 04:00N 34°41' E 135°13'0 0.0
2017-Dec-10 03:30N 34°41' E 135°13'0 0.0
2017-Dec-10 03:00N 34°41' E 135°13'0 0.0
2017-Dec-10 02:30N 34°41' E 135°13'0 0.0
2017-Dec-10 02:00N 34°41' E 135°13'0 0.0
2017-Dec-10 01:30N 34°41' E 135°13'0 0.0
2017-Dec-10 01:00N 34°41' E 135°13'0 0.0
2017-Dec-10 00:30N 34°41' E 135°13'0 0.0
2017-Dec-10 00:00N 34°41' E 135°13'0 0.0
2017-Dec-09 23:30N 34°41' E 135°13'0 0.0
2017-Dec-09 23:01N 34°41' E 135°13'3 5.7
2017-Dec-09 22:30N 34°39' E 135°15'1 1.5
2017-Dec-09 21:58N 34°39' E 135°15'0 0.0
2017-Dec-09 21:28N 34°39' E 135°15'0 0.0
2017-Dec-09 20:58N 34°39' E 135°15'0 0.0
2017-Dec-09 20:28N 34°39' E 135°15'0 0.1
2017-Dec-09 19:58N 34°39' E 135°15'0 0.1
2017-Dec-09 19:28N 34°39' E 135°15'0 0.0
2017-Dec-09 18:58N 34°39' E 135°15'0 0.1
2017-Dec-09 18:28N 34°39' E 135°15'0 0.0
2017-Dec-09 18:01N 34°39' E 135°15'0 0.0
2017-Dec-09 17:31N 34°39' E 135°15'0 0.0
2017-Dec-09 16:58N 34°39' E 135°15'0 0.1
2017-Dec-09 16:28N 34°39' E 135°15'0 0.0
2017-Dec-09 15:58N 34°39' E 135°15'2 4.6
2017-Dec-09 15:30N 34°37' E 135°13'611.4
2017-Dec-09 15:00N 34°35' E 135°07'510.8
2017-Dec-09 14:30N 34°37' E 135°01'611.0
2017-Dec-09 14:00N 34°35' E 134°54'611.5
2017-Dec-09 13:31N 34°33' E 134°48'611.5
2017-Dec-09 13:00N 34°31' E 134°41'611.7
2017-Dec-09 12:31N 34°28' E 134°35'611.8
2017-Dec-09 12:00N 34°26' E 134°28'8911.7
2017-Dec-09 04:23N 34°06' E 132°43'1510.3
2017-Dec-09 02:56N 34°06' E 132°25'511.7
2017-Dec-09 02:30N 34°09' E 132°20'611.3
2017-Dec-09 02:00N 34°13' E 132°15'0 0.3
2017-Dec-09 01:28N 34°13' E 132°15'0 0.0
2017-Dec-09 00:58N 34°13' E 132°15'0 0.0
2017-Dec-09 00:28N 34°13' E 132°15'0 0.0
2017-Dec-08 23:58N 34°13' E 132°15'0 0.0
2017-Dec-08 23:28N 34°13' E 132°15'1 1.1
2017-Dec-08 23:00N 34°13' E 132°15'1 1.3
2017-Dec-08 22:30N 34°13' E 132°16'0 0.0
2017-Dec-08 22:00N 34°13' E 132°16'0 0.0
2017-Dec-08 21:30N 34°13' E 132°16'0 0.0
2017-Dec-08 21:00N 34°13' E 132°16'0 0.2
2017-Dec-08 20:30N 34°13' E 132°16'5 9.6
2017-Dec-08 19:59N 34°09' E 132°19'511.0
2017-Dec-08 19:30N 34°06' E 132°25'610.7
2017-Dec-08 18:56N 34°02' E 132°31'410.1
2017-Dec-08 18:31N 34°03' E 132°36'611.4
2017-Dec-08 18:01N 34°06' E 132°42'7210.1
2017-Dec-08 10:50N 34°32' E 134°04'2010.5
2017-Dec-08 08:54N 34°41' E 134°26'510.6
2017-Dec-08 08:25N 34°43' E 134°31'5 1.5
2017-Dec-08 04:49N 34°46' E 134°36'1 2.1
2017-Dec-08 04:30N 34°46' E 134°37'510.4
2017-Dec-08 04:01N 34°43' E 134°42'611.4
2017-Dec-08 03:30N 34°40' E 134°47'612.2
2017-Dec-08 03:00N 34°37' E 134°54'714.3
2017-Dec-08 02:31N 34°36' E 135°03'611.5
2017-Dec-08 02:01N 34°36' E 135°10'510.7
2017-Dec-08 01:31N 34°39' E 135°15'1 1.5
2017-Dec-08 01:00N 34°39' E 135°15'0 0.7
2017-Dec-08 00:31N 34°39' E 135°15'2 4.1
2017-Dec-08 00:00N 34°41' E 135°17'0 0.0
2017-Dec-07 23:29N 34°41' E 135°17'0 0.5
2017-Dec-07 23:00N 34°41' E 135°17'0 0.1
2017-Dec-07 22:29N 34°41' E 135°17'0 0.0
2017-Dec-07 21:59N 34°41' E 135°17'0 0.0
2017-Dec-07 21:29N 34°41' E 135°17'0 0.0
2017-Dec-07 20:59N 34°41' E 135°17'0 0.0
2017-Dec-07 20:29N 34°41' E 135°17'0 0.0
2017-Dec-07 19:59N 34°41' E 135°17'0 0.0
2017-Dec-07 19:29N 34°41' E 135°17'0 0.0
2017-Dec-07 18:59N 34°41' E 135°17'0 0.0
2017-Dec-07 18:29N 34°41' E 135°17'0 0.0
2017-Dec-07 17:59N 34°41' E 135°17'0 0.0
2017-Dec-07 17:29N 34°41' E 135°17'0 0.0
2017-Dec-07 16:59N 34°41' E 135°17'0 0.0
2017-Dec-07 16:29N 34°41' E 135°17'0 0.0
2017-Dec-07 15:59N 34°41' E 135°17'0 0.0
2017-Dec-07 15:29N 34°41' E 135°17'0 0.0
2017-Dec-07 14:59N 34°41' E 135°17'0 0.0
2017-Dec-07 14:29N 34°41' E 135°17'0 0.0
2017-Dec-07 13:59N 34°41' E 135°17'0 0.0
2017-Dec-07 13:29N 34°41' E 135°17'0 0.0
2017-Dec-07 12:59N 34°41' E 135°17'0 0.0
2017-Dec-07 12:29N 34°41' E 135°17'0 0.0
2017-Dec-07 11:59N 34°41' E 135°17'0 0.0
2017-Dec-07 11:29N 34°41' E 135°17'0 0.0
2017-Dec-07 10:59N 34°41' E 135°17'0 0.0
2017-Dec-07 10:29N 34°41' E 135°17'0 0.0
2017-Dec-07 09:59N 34°41' E 135°17'0 0.0
2017-Dec-07 09:29N 34°41' E 135°17'0 0.2
2017-Dec-07 09:00N 34°41' E 135°17'3 6.6
2017-Dec-07 08:30N 34°37' E 135°17'510.9
2017-Dec-07 08:01N 34°35' E 135°11'612.4
2017-Dec-07 07:31N 34°35' E 135°04'612.7
2017-Dec-07 07:00N 34°36' E 134°56'612.5
2017-Dec-07 06:30N 34°34' E 134°49'611.4
2017-Dec-07 06:00N 34°31' E 134°43'611.6
2017-Dec-07 05:30N 34°29' E 134°36'611.9
2017-Dec-07 05:00N 34°27' E 134°30'  

Dump ship's entire track history